North Garden, VA (22959)

12:32 AM EDT on July 31, 2016 (GMT -0400)
Plank Road | | Change Station

Elev 810 ft 37.98 °N, 78.71 °W | Updated 4 minutes ago

Fog
Fog
72.1 °F
Feels Like 72.1 °F
N
0.6
Wind Variable Wind from WNW
Gusts 2.5 mph

Today
High -- | Low -- °F
--% Chance of Precip.
Yesterday
High -- | Low -- °F
Precip. -- in
Pressure 30.00 in
Visibility 0.5 miles
Clouds
Dew Point 71 °F
Humidity 95%
Rainfall 0.00 in
Snow Depth Not available.
6:17 AM 8:24 PM
Waning Crescent, 9% visible
SPECI KCHO 310402Z AUTO 00000KT 1/2SM FG VV001 22/21 A3000 RMK AO2 T02220211
Pressure 30.00 in
Visibility 0.5 miles
Clouds
Dew Point 71 °F
Humidity 95%
Rainfall 0.00 in
Snow Depth Not available.
6:17 AM 8:24 PM
Waning Crescent, 9% visible
SPECI KCHO 310402Z AUTO 00000KT 1/2SM FG VV001 22/21 A3000 RMK AO2 T02220211

10-Day Weather Forecast

Almanac

Astronomy

Jul. 31, 2016 Rise Set
Actual Time
Civil Twilight
Nautical Twilight
Astronomical Twilight
Moon
Length of Visible Light
Length of Day
Tomorrow will be .
, % of the Moon is Illuminated

Today's Extremes

State Highs State Lows

Community

WunderPhotos

Upload Photos

1,928,759 photos uploaded!

WunderBlog® & News

Nearby

Air Quality

  Air Quality AQ Index Pollutant
Not available.

Snow Depth

Station Depth Elevation

Earthquake Activity

City Distance Mag. Time & Date
Minimum magnitude displayed is 2.5.

Coastal Water Temperatures

Place Temperature

Stations

Nearby Weather Stations

Station Location Temp. Windchill Dew Point Humidity Wind Precip. Elev Updated Type
                   

Watches & Warnings

There are currently no watches in effect.